Time;durP1;ratioP1;P1;durP2;ratioP2;P2;SDS_P1;SDS_P2;PMS_P1;PMS_P2;Temp;Humidity;BMP_temperature;BMP_pressure;BME280_temperature;BME280_humidity;BME280_pressure;Samples;Min_cycle;Max_cycle;Signal;HPM_P1;HPM_P2
2022/10/15 00:05:51;;;;;;;7.47;1.50;;;17.10;99.90;;;;;;7920261;73;26808;-60
2022/10/15 00:15:53;;;;;;;4.13;1.40;;;17.30;99.90;;;;;;7951109;73;26276;-61
2022/10/15 00:26:13;;;;;;;4.13;1.20;;;17.30;99.90;;;;;;7957028;73;26221;-60
2022/10/15 00:36:18;;;;;;;4.30;1.33;;;17.30;99.90;;;;;;7945641;73;26241;-61
2022/10/15 00:46:36;;;;;;;4.80;1.43;;;17.30;99.90;;;;;;7960221;73;26299;-61
2022/10/15 00:56:41;;;;;;;4.57;1.33;;;17.30;99.90;;;;;;7944626;73;26832;-60
2022/10/15 01:06:44;;;;;;;7.33;1.60;;;17.30;99.90;;;;;;7959527;73;26241;-61
2022/10/15 01:16:50;;;;;;;4.73;1.53;;;17.30;99.90;;;;;;7953023;73;26252;-58
2022/10/15 01:27:01;;;;;;;8.70;1.50;;;17.40;99.90;;;;;;7931424;73;26307;-60
2022/10/15 01:37:12;;;;;;;5.03;1.60;;;17.40;99.90;;;;;;7939987;72;27019;-60
2022/10/15 01:47:24;;;;;;;4.63;1.17;;;17.40;99.90;;;;;;7952438;73;26213;-57
2022/10/15 01:57:29;;;;;;;8.93;3.97;;;17.40;99.90;;;;;;7928354;73;26260;-60
2022/10/15 02:07:34;;;;;;;2.67;1.10;;;17.30;99.90;;;;;;7966336;73;26249;-58
2022/10/15 02:17:43;;;;;;;2.63;1.40;;;17.40;99.90;;;;;;7943075;73;26338;-60
2022/10/15 02:27:47;;;;;;;2.37;1.20;;;17.40;99.90;;;;;;7926638;73;26697;-60
2022/10/15 02:37:53;;;;;;;2.90;1.33;;;17.40;99.90;;;;;;7948877;73;26311;-61
2022/10/15 02:47:55;;;;;;;2.37;1.37;;;17.40;99.90;;;;;;7938673;73;26312;-61
2022/10/15 02:57:58;;;;;;;3.53;1.07;;;17.30;99.90;;;;;;7941394;73;26342;-60
2022/10/15 03:08:00;;;;;;;5.27;1.30;;;17.40;99.90;;;;;;7945601;73;26308;-59
2022/10/15 03:18:03;;;;;;;3.10;1.33;;;17.40;99.90;;;;;;7953998;73;27021;-59
2022/10/15 03:28:06;;;;;;;5.27;1.30;;;17.40;99.90;;;;;;7940478;73;26691;-60
2022/10/15 03:38:08;;;;;;;2.80;1.23;;;17.40;99.90;;;;;;7933359;73;26229;-60
2022/10/15 03:48:11;;;;;;;1.73;0.90;;;17.40;99.90;;;;;;7953065;73;26315;-60
2022/10/15 03:58:13;;;;;;;2.17;1.00;;;17.40;99.90;;;;;;7931750;73;26719;-61
2022/10/15 04:08:16;;;;;;;3.50;1.03;;;17.40;99.90;;;;;;7940053;73;26295;-60
2022/10/15 04:18:23;;;;;;;5.20;1.27;;;17.40;99.90;;;;;;7951245;73;26235;-61
2022/10/15 04:28:23;;;;;;;7.13;1.00;;;17.40;99.90;;;;;;7941021;73;26334;-60
2022/10/15 04:38:25;;;;;;;5.20;1.00;;;17.50;99.90;;;;;;7930862;73;26782;-61
2022/10/15 04:48:29;;;;;;;2.10;1.00;;;17.50;99.90;;;;;;7946755;73;26230;-58
2022/10/15 04:58:32;;;;;;;5.23;1.10;;;17.50;99.90;;;;;;7942085;73;26293;-59
2022/10/15 05:08:36;;;;;;;9.17;2.07;;;17.50;99.90;;;;;;7943861;73;26290;-60
2022/10/15 05:18:40;;;;;;;7.37;1.40;;;17.50;99.90;;;;;;7923884;73;26268;-60
2022/10/15 05:28:43;;;;;;;2.63;1.03;;;17.50;99.90;;;;;;7949765;73;26302;-60
2022/10/15 05:38:52;;;;;;;5.50;1.30;;;17.50;99.90;;;;;;7919607;73;26775;-61
2022/10/15 05:48:56;;;;;;;4.77;1.20;;;17.40;99.90;;;;;;7968267;73;26221;-61
2022/10/15 05:58:59;;;;;;;4.33;1.20;;;17.50;99.90;;;;;;7950678;73;26221;-58
2022/10/15 06:09:01;;;;;;;4.20;1.27;;;17.50;99.90;;;;;;7952424;73;26301;-62
2022/10/15 06:19:05;;;;;;;2.10;1.33;;;17.50;99.90;;;;;;7942222;73;26237;-59
2022/10/15 06:29:07;;;;;;;7.67;2.10;;;17.50;99.90;;;;;;7921573;73;26794;-61
2022/10/15 06:39:10;;;;;;;4.83;1.90;;;17.50;99.90;;;;;;7971100;73;26241;-60
2022/10/15 06:49:12;;;;;;;5.23;1.87;;;17.50;99.90;;;;;;7938621;73;26287;-61
2022/10/15 06:59:15;;;;;;;3.60;1.60;;;17.40;99.90;;;;;;7894767;73;26253;-62
2022/10/15 07:09:18;;;;;;;4.57;2.03;;;17.50;99.90;;;;;;7886068;73;27242;-61
2022/10/15 07:19:21;;;;;;;2.17;1.27;;;17.50;99.90;;;;;;7948089;72;26271;-60
2022/10/15 07:29:24;;;;;;;32.13;4.33;;;17.40;99.90;;;;;;7853142;73;26831;-60
2022/10/15 07:39:26;;;;;;;30.27;7.40;;;17.50;99.90;;;;;;7870245;73;26292;-61
2022/10/15 07:49:29;;;;;;;27.37;6.93;;;17.50;99.90;;;;;;7946507;73;26235;-61
2022/10/15 07:59:31;;;;;;;22.07;5.13;;;17.50;99.90;;;;;;7905060;73;26226;-61
2022/10/15 08:09:34;;;;;;;22.80;5.47;;;17.50;99.90;;;;;;7905195;73;26756;-61
2022/10/15 08:19:36;;;;;;;44.10;8.03;;;17.60;99.90;;;;;;7951906;73;26303;-61
2022/10/15 08:29:39;;;;;;;43.57;9.67;;;17.70;99.90;;;;;;7903820;73;26218;-61
2022/10/15 08:39:41;;;;;;;28.03;7.03;;;17.70;99.90;;;;;;7904796;73;26244;-61
2022/10/15 08:49:53;;;;;;;21.40;4.53;;;17.70;99.90;;;;;;7924818;73;26226;-61
2022/10/15 08:59:58;;;;;;;26.00;5.60;;;17.80;99.90;;;;;;7895589;73;26232;-61
2022/10/15 09:10:19;;;;;;;14.40;4.20;;;17.90;99.90;;;;;;7908400;73;26233;-62
2022/10/15 09:20:27;;;;;;;24.13;5.83;;;18.00;99.90;;;;;;7952379;72;26274;-61
2022/10/15 09:30:50;;;;;;;16.03;3.83;;;18.10;99.90;;;;;;7946543;73;26259;-60
2022/10/15 09:41:04;;;;;;;27.50;4.20;;;18.30;99.90;;;;;;7940765;73;26237;-61
2022/10/15 09:51:28;;;;;;;9.63;2.37;;;18.40;99.90;;;;;;7900959;73;26302;-61
2022/10/15 10:01:32;;;;;;;14.27;3.10;;;18.60;99.90;;;;;;7887369;73;26291;-61
2022/10/15 10:11:50;;;;;;;16.53;3.67;;;18.50;99.90;;;;;;7933080;73;27123;-61
2022/10/15 10:21:55;;;;;;;12.73;2.53;;;18.60;99.90;;;;;;7905637;73;26237;-61
2022/10/15 10:31:58;;;;;;;13.17;3.20;;;18.60;99.90;;;;;;7957557;73;26226;-61
2022/10/15 10:42:06;;;;;;;25.93;8.67;;;18.60;99.90;;;;;;7882429;73;26332;-62
2022/10/15 10:52:28;;;;;;;21.70;8.80;;;18.60;99.90;;;;;;7927517;73;26296;-62
2022/10/15 11:02:32;;;;;;;15.13;6.50;;;18.70;99.90;;;;;;7946004;73;26220;-63
2022/10/15 11:12:50;;;;;;;16.27;6.17;;;18.70;99.90;;;;;;7954224;73;26246;-62
2022/10/15 11:22:58;;;;;;;10.60;4.03;;;18.70;99.90;;;;;;7924964;73;26800;-61
2022/10/15 11:33:21;;;;;;;13.13;3.93;;;18.60;99.90;;;;;;7938989;73;27106;-63
2022/10/15 11:43:46;;;;;;;33.10;5.63;;;18.60;99.90;;;;;;7903314;73;26292;-61
2022/10/15 11:54:01;;;;;;;16.07;4.53;;;18.70;99.90;;;;;;7899622;73;26708;-59
2022/10/15 12:04:08;;;;;;;15.23;4.40;;;18.70;99.90;;;;;;7909397;73;26249;-61
2022/10/15 12:14:38;;;;;;;22.87;5.23;;;18.60;99.90;;;;;;7909605;73;26281;-61
2022/10/15 12:24:46;;;;;;;15.50;4.60;;;18.70;99.90;;;;;;7888831;73;26693;-62
2022/10/15 12:34:55;;;;;;;10.50;3.60;;;18.70;99.90;;;;;;7938272;73;26281;-62
2022/10/15 12:45:01;;;;;;;12.87;3.73;;;18.70;99.90;;;;;;7891322;73;26338;-61
2022/10/15 12:55:33;;;;;;;8.33;3.03;;;18.80;99.90;;;;;;7940305;73;26238;-61
2022/10/15 13:05:36;;;;;;;13.03;4.10;;;18.80;99.90;;;;;;7884841;73;26236;-61
2022/10/15 13:15:40;;;;;;;9.97;3.60;;;18.80;99.90;;;;;;7899111;73;26323;-61
2022/10/15 13:25:42;;;;;;;10.43;3.97;;;18.80;99.90;;;;;;7935350;73;26253;-62
2022/10/15 13:35:45;;;;;;;11.03;3.17;;;18.90;99.90;;;;;;7961402;73;26241;-61
2022/10/15 13:45:56;;;;;;;15.43;3.40;;;18.90;99.90;;;;;;7935730;73;26667;-62
2022/10/15 13:56:02;;;;;;;9.30;3.40;;;19.00;99.90;;;;;;7891238;73;26690;-59
2022/10/15 14:06:20;;;;;;;3.77;1.93;;;19.00;99.90;;;;;;7883605;73;26757;-62
2022/10/15 14:16:34;;;;;;;11.20;3.27;;;19.00;99.90;;;;;;7921033;73;26250;-61
2022/10/15 14:26:38;;;;;;;5.63;2.90;;;19.00;99.90;;;;;;7906108;73;26226;-61
2022/10/15 14:36:43;;;;;;;2.93;1.50;;;18.90;99.90;;;;;;7958639;73;26276;-61
2022/10/15 14:46:49;;;;;;;5.97;2.50;;;19.00;99.90;;;;;;7965042;73;26731;-62
2022/10/15 14:56:51;;;;;;;5.47;1.63;;;19.00;99.90;;;;;;7943481;73;26221;-61
2022/10/15 15:06:54;;;;;;;5.37;2.30;;;18.90;99.90;;;;;;7928127;73;26364;-61
2022/10/15 15:16:56;;;;;;;9.30;1.33;;;18.90;99.90;;;;;;7941329;73;26350;-61
2022/10/15 15:26:59;;;;;;;9.07;1.63;;;18.90;99.90;;;;;;7908640;73;26736;-61
2022/10/15 15:37:01;;;;;;;2.27;1.20;;;18.90;99.90;;;;;;7946066;73;26279;-61
2022/10/15 15:47:04;;;;;;;1.17;1.03;;;18.90;99.90;;;;;;7946728;73;26273;-62
2022/10/15 15:57:07;;;;;;;5.13;1.50;;;18.80;99.90;;;;;;7887664;73;26748;-62
2022/10/15 16:07:09;;;;;;;7.77;1.63;;;18.80;99.90;;;;;;7951683;73;26256;-62
2022/10/15 16:17:12;;;;;;;4.10;1.00;;;18.80;99.90;;;;;;7952311;73;26656;-60
2022/10/15 16:27:14;;;;;;;5.10;1.53;;;18.80;99.90;;;;;;7955072;73;26303;-62
2022/10/15 16:37:17;;;;;;;5.53;1.60;;;18.80;99.90;;;;;;7951340;73;26256;-61
2022/10/15 16:47:22;;;;;;;0.80;0.80;;;18.80;99.90;;;;;;7944794;73;26288;-62
2022/10/15 16:57:25;;;;;;;9.03;2.10;;;18.70;99.90;;;;;;7889072;73;26680;-62
2022/10/15 17:07:28;;;;;;;7.70;1.87;;;18.70;99.90;;;;;;7950921;73;26683;-63
2022/10/15 17:17:30;;;;;;;13.33;4.43;;;18.60;99.90;;;;;;7906222;73;26243;-63
2022/10/15 17:27:34;;;;;;;15.33;4.73;;;18.60;99.90;;;;;;7944318;73;26237;-63
2022/10/15 17:37:38;;;;;;;10.23;3.77;;;18.60;99.90;;;;;;7871347;73;26313;-62
2022/10/15 17:47:41;;;;;;;10.93;3.73;;;18.60;99.90;;;;;;7934890;73;26221;-62
2022/10/15 17:57:43;;;;;;;8.13;3.03;;;18.60;99.90;;;;;;7903039;73;26232;-63
2022/10/15 18:07:46;;;;;;;10.70;3.63;;;18.60;99.90;;;;;;7957812;73;26814;-63
2022/10/15 18:17:48;;;;;;;9.20;3.63;;;18.70;99.90;;;;;;7953019;73;26252;-63
2022/10/15 18:27:51;;;;;;;11.13;3.63;;;18.60;99.90;;;;;;7927701;73;26295;-62
2022/10/15 18:37:53;;;;;;;18.43;3.83;;;18.60;99.90;;;;;;7917014;73;26351;-63
2022/10/15 18:47:56;;;;;;;12.97;4.07;;;18.60;99.90;;;;;;7936474;73;26522;-61
2022/10/15 18:58:00;;;;;;;11.80;3.43;;;18.60;99.90;;;;;;7886859;73;26221;-61
2022/10/15 19:08:05;;;;;;;18.00;4.10;;;18.60;99.90;;;;;;7862197;73;26268;-58
2022/10/15 19:18:09;;;;;;;19.60;2.90;;;18.50;99.90;;;;;;7918559;73;26213;-57
2022/10/15 19:28:11;;;;;;;12.03;2.67;;;18.50;99.90;;;;;;7900006;73;26237;-59
2022/10/15 19:38:13;;;;;;;15.03;2.73;;;18.50;99.90;;;;;;7893712;73;26299;-58
2022/10/15 19:48:18;;;;;;;10.33;2.30;;;18.50;99.90;;;;;;7930837;73;26293;-61
2022/10/15 19:58:21;;;;;;;18.33;2.07;;;18.40;99.90;;;;;;7948375;73;26300;-62
2022/10/15 20:08:23;;;;;;;8.37;2.33;;;18.40;99.90;;;;;;7965435;73;26304;-62
2022/10/15 20:18:26;;;;;;;9.23;1.60;;;18.40;99.90;;;;;;7957975;73;26210;-62
2022/10/15 20:28:28;;;;;;;8.30;1.73;;;18.40;99.90;;;;;;7954387;73;26257;-59
2022/10/15 20:38:32;;;;;;;3.40;1.40;;;18.40;99.90;;;;;;7886680;73;26271;-62
2022/10/15 20:48:35;;;;;;;11.93;1.50;;;18.40;99.90;;;;;;7931825;73;26236;-62
2022/10/15 20:58:38;;;;;;;10.53;2.03;;;18.40;99.90;;;;;;7951104;73;26225;-61
2022/10/15 21:08:40;;;;;;;4.53;1.53;;;18.40;99.90;;;;;;7922185;73;26250;-63
2022/10/15 21:18:43;;;;;;;9.20;1.77;;;18.40;99.90;;;;;;7971224;72;26287;-61
2022/10/15 21:28:46;;;;;;;8.87;1.83;;;18.30;99.90;;;;;;7917706;73;26315;-63
2022/10/15 21:38:59;;;;;;;6.27;1.50;;;18.30;99.90;;;;;;7909871;73;26214;-63
2022/10/15 21:49:02;;;;;;;1.90;0.90;;;18.30;99.90;;;;;;7922254;73;26322;-68
2022/10/15 21:59:05;;;;;;;4.00;1.40;;;18.20;99.90;;;;;;7898317;73;26247;-63
2022/10/15 22:09:09;;;;;;;3.40;1.03;;;18.20;99.90;;;;;;7881007;73;26759;-64
2022/10/15 22:19:15;;;;;;;6.70;1.60;;;18.30;99.90;;;;;;7902400;73;26241;-59
2022/10/15 22:29:23;;;;;;;3.27;1.30;;;18.30;99.90;;;;;;7930856;73;26371;-60
2022/10/15 22:39:25;;;;;;;2.33;1.17;;;18.30;99.90;;;;;;7882792;73;26312;-64
2022/10/15 22:49:28;;;;;;;1.93;1.10;;;18.30;99.90;;;;;;7874747;73;26309;-63
2022/10/15 22:59:30;;;;;;;4.13;1.13;;;18.30;99.90;;;;;;7894494;73;26537;-63
2022/10/15 23:09:33;;;;;;;6.50;1.70;;;18.30;99.90;;;;;;7924012;73;26285;-62
2022/10/15 23:19:35;;;;;;;4.97;1.70;;;18.30;99.90;;;;;;7883344;73;26307;-64
2022/10/15 23:29:38;;;;;;;4.47;0.90;;;18.30;99.90;;;;;;7930517;73;27204;-63
2022/10/15 23:39:40;;;;;;;1.63;0.83;;;18.20;99.90;;;;;;7849280;73;26278;-64
2022/10/15 23:49:43;;;;;;;1.57;1.00;;;18.20;99.90;;;;;;7904966;73;26282;-61
2022/10/15 23:59:45;;;;;;;6.73;1.50;;;18.20;99.90;;;;;;7874056;73;26728;-59
